sensor_id;sensor_type;location;lat;lon;timestamp;P1;durP1;ratioP1;P2;durP2;ratioP2
65289;SDS011;51893;59.754;10.110;2024-02-23T00:01:30;0.80;;;0.80;;
65289;SDS011;51893;59.754;10.110;2024-02-23T00:03:58;0.70;;;0.70;;
65289;SDS011;51893;59.754;10.110;2024-02-23T00:06:26;0.70;;;0.70;;
65289;SDS011;51893;59.754;10.110;2024-02-23T00:08:56;0.70;;;0.70;;
65289;SDS011;51893;59.754;10.110;2024-02-23T00:11:24;0.50;;;0.50;;
65289;SDS011;51893;59.754;10.110;2024-02-23T00:13:52;0.70;;;0.70;;
65289;SDS011;51893;59.754;10.110;2024-02-23T00:16:20;0.70;;;0.70;;
65289;SDS011;51893;59.754;10.110;2024-02-23T00:18:49;0.80;;;0.80;;
65289;SDS011;51893;59.754;10.110;2024-02-23T00:21:17;0.50;;;0.50;;
65289;SDS011;51893;59.754;10.110;2024-02-23T00:23:45;0.70;;;0.70;;
65289;SDS011;51893;59.754;10.110;2024-02-23T00:26:12;0.80;;;0.80;;
65289;SDS011;51893;59.754;10.110;2024-02-23T00:28:40;0.70;;;0.70;;
65289;SDS011;51893;59.754;10.110;2024-02-23T00:31:08;0.80;;;0.80;;
65289;SDS011;51893;59.754;10.110;2024-02-23T00:33:36;0.80;;;0.80;;
65289;SDS011;51893;59.754;10.110;2024-02-23T00:36:05;0.70;;;0.70;;
65289;SDS011;51893;59.754;10.110;2024-02-23T00:38:33;1.20;;;1.10;;
65289;SDS011;51893;59.754;10.110;2024-02-23T00:41:02;1.00;;;1.00;;
65289;SDS011;51893;59.754;10.110;2024-02-23T00:43:40;0.60;;;0.60;;
65289;SDS011;51893;59.754;10.110;2024-02-23T00:46:09;0.80;;;0.70;;
65289;SDS011;51893;59.754;10.110;2024-02-23T00:48:37;0.90;;;0.90;;
65289;SDS011;51893;59.754;10.110;2024-02-23T00:51:06;0.70;;;0.70;;
65289;SDS011;51893;59.754;10.110;2024-02-23T00:53:35;0.60;;;0.60;;
65289;SDS011;51893;59.754;10.110;2024-02-23T00:56:03;0.60;;;0.60;;
65289;SDS011;51893;59.754;10.110;2024-02-23T00:58:32;0.60;;;0.60;;
65289;SDS011;51893;59.754;10.110;2024-02-23T01:01:00;0.60;;;0.60;;
65289;SDS011;51893;59.754;10.110;2024-02-23T01:03:28;0.50;;;0.50;;
65289;SDS011;51893;59.754;10.110;2024-02-23T01:05:57;0.70;;;0.60;;
65289;SDS011;51893;59.754;10.110;2024-02-23T01:08:25;0.50;;;0.50;;
65289;SDS011;51893;59.754;10.110;2024-02-23T01:10:53;0.70;;;0.70;;
65289;SDS011;51893;59.754;10.110;2024-02-23T01:13:21;0.60;;;0.60;;
65289;SDS011;51893;59.754;10.110;2024-02-23T01:15:50;0.60;;;0.60;;
65289;SDS011;51893;59.754;10.110;2024-02-23T01:18:18;0.60;;;0.60;;
65289;SDS011;51893;59.754;10.110;2024-02-23T01:20:47;0.60;;;0.60;;
65289;SDS011;51893;59.754;10.110;2024-02-23T01:23:15;0.90;;;0.80;;
65289;SDS011;51893;59.754;10.110;2024-02-23T01:25:43;0.50;;;0.50;;
65289;SDS011;51893;59.754;10.110;2024-02-23T01:28:12;0.60;;;0.60;;
65289;SDS011;51893;59.754;10.110;2024-02-23T01:30:40;0.70;;;0.70;;
65289;SDS011;51893;59.754;10.110;2024-02-23T01:33:08;2.80;;;0.70;;
65289;SDS011;51893;59.754;10.110;2024-02-23T01:35:36;0.60;;;0.60;;
65289;SDS011;51893;59.754;10.110;2024-02-23T01:38:05;0.50;;;0.50;;
65289;SDS011;51893;59.754;10.110;2024-02-23T01:40:33;0.70;;;0.70;;
65289;SDS011;51893;59.754;10.110;2024-02-23T01:43:04;0.70;;;0.70;;
65289;SDS011;51893;59.754;10.110;2024-02-23T01:45:33;0.70;;;0.70;;
65289;SDS011;51893;59.754;10.110;2024-02-23T01:48:01;1.10;;;0.90;;
65289;SDS011;51893;59.754;10.110;2024-02-23T01:50:30;2.20;;;1.30;;
65289;SDS011;51893;59.754;10.110;2024-02-23T01:53:01;1.00;;;1.00;;
65289;SDS011;51893;59.754;10.110;2024-02-23T01:55:31;0.60;;;0.60;;
65289;SDS011;51893;59.754;10.110;2024-02-23T01:58:04;0.60;;;0.60;;
65289;SDS011;51893;59.754;10.110;2024-02-23T02:00:35;0.60;;;0.60;;
65289;SDS011;51893;59.754;10.110;2024-02-23T02:03:04;0.60;;;0.60;;
65289;SDS011;51893;59.754;10.110;2024-02-23T02:05:37;0.70;;;0.70;;
65289;SDS011;51893;59.754;10.110;2024-02-23T02:08:06;0.70;;;0.70;;
65289;SDS011;51893;59.754;10.110;2024-02-23T02:10:34;0.60;;;0.60;;
65289;SDS011;51893;59.754;10.110;2024-02-23T02:13:04;0.70;;;0.70;;
65289;SDS011;51893;59.754;10.110;2024-02-23T02:15:33;0.70;;;0.70;;
65289;SDS011;51893;59.754;10.110;2024-02-23T02:18:01;1.30;;;1.00;;
65289;SDS011;51893;59.754;10.110;2024-02-23T02:20:32;0.90;;;0.90;;
65289;SDS011;51893;59.754;10.110;2024-02-23T02:23:02;0.80;;;0.80;;
65289;SDS011;51893;59.754;10.110;2024-02-23T02:25:35;0.70;;;0.70;;
65289;SDS011;51893;59.754;10.110;2024-02-23T02:28:06;0.70;;;0.70;;
65289;SDS011;51893;59.754;10.110;2024-02-23T02:30:35;0.60;;;0.60;;
65289;SDS011;51893;59.754;10.110;2024-02-23T02:33:03;0.90;;;0.90;;
65289;SDS011;51893;59.754;10.110;2024-02-23T02:35:31;1.60;;;1.50;;
65289;SDS011;51893;59.754;10.110;2024-02-23T02:37:59;1.20;;;1.10;;
65289;SDS011;51893;59.754;10.110;2024-02-23T02:40:27;4.10;;;1.30;;
65289;SDS011;51893;59.754;10.110;2024-02-23T02:42:55;1.00;;;1.00;;
65289;SDS011;51893;59.754;10.110;2024-02-23T02:45:23;0.70;;;0.70;;
65289;SDS011;51893;59.754;10.110;2024-02-23T02:47:53;0.70;;;0.70;;
65289;SDS011;51893;59.754;10.110;2024-02-23T02:50:24;0.80;;;0.80;;
65289;SDS011;51893;59.754;10.110;2024-02-23T02:52:53;0.60;;;0.60;;
65289;SDS011;51893;59.754;10.110;2024-02-23T02:55:21;0.40;;;0.40;;
65289;SDS011;51893;59.754;10.110;2024-02-23T02:57:49;0.70;;;0.50;;
65289;SDS011;51893;59.754;10.110;2024-02-23T03:00:17;0.40;;;0.40;;
65289;SDS011;51893;59.754;10.110;2024-02-23T03:02:45;1.00;;;0.40;;
65289;SDS011;51893;59.754;10.110;2024-02-23T03:05:13;0.50;;;0.50;;
65289;SDS011;51893;59.754;10.110;2024-02-23T03:07:41;0.40;;;0.40;;
65289;SDS011;51893;59.754;10.110;2024-02-23T03:10:09;1.10;;;0.50;;
65289;SDS011;51893;59.754;10.110;2024-02-23T03:12:37;0.40;;;0.40;;
65289;SDS011;51893;59.754;10.110;2024-02-23T03:15:05;0.80;;;0.60;;
65289;SDS011;51893;59.754;10.110;2024-02-23T03:17:34;0.30;;;0.30;;
65289;SDS011;51893;59.754;10.110;2024-02-23T03:20:03;0.40;;;0.40;;
65289;SDS011;51893;59.754;10.110;2024-02-23T03:22:39;0.30;;;0.30;;
65289;SDS011;51893;59.754;10.110;2024-02-23T03:25:07;0.50;;;0.50;;
65289;SDS011;51893;59.754;10.110;2024-02-23T03:27:36;0.40;;;0.40;;
65289;SDS011;51893;59.754;10.110;2024-02-23T03:30:07;0.30;;;0.30;;
65289;SDS011;51893;59.754;10.110;2024-02-23T03:32:36;0.50;;;0.50;;
65289;SDS011;51893;59.754;10.110;2024-02-23T03:35:06;0.40;;;0.40;;
65289;SDS011;51893;59.754;10.110;2024-02-23T03:37:36;0.40;;;0.40;;
65289;SDS011;51893;59.754;10.110;2024-02-23T03:40:08;0.40;;;0.40;;
65289;SDS011;51893;59.754;10.110;2024-02-23T03:42:38;0.40;;;0.40;;
65289;SDS011;51893;59.754;10.110;2024-02-23T03:45:06;0.40;;;0.40;;
65289;SDS011;51893;59.754;10.110;2024-02-23T03:47:34;0.60;;;0.40;;
65289;SDS011;51893;59.754;10.110;2024-02-23T03:50:03;0.40;;;0.40;;
65289;SDS011;51893;59.754;10.110;2024-02-23T03:52:33;0.40;;;0.40;;
65289;SDS011;51893;59.754;10.110;2024-02-23T03:55:01;0.50;;;0.50;;
65289;SDS011;51893;59.754;10.110;2024-02-23T03:57:31;0.40;;;0.40;;
65289;SDS011;51893;59.754;10.110;2024-02-23T03:59:59;0.40;;;0.40;;
65289;SDS011;51893;59.754;10.110;2024-02-23T04:02:29;0.50;;;0.50;;
65289;SDS011;51893;59.754;10.110;2024-02-23T04:04:57;0.50;;;0.50;;
65289;SDS011;51893;59.754;10.110;2024-02-23T04:07:25;0.40;;;0.40;;
65289;SDS011;51893;59.754;10.110;2024-02-23T04:09:54;0.40;;;0.40;;
65289;SDS011;51893;59.754;10.110;2024-02-23T04:12:23;0.40;;;0.40;;
65289;SDS011;51893;59.754;10.110;2024-02-23T04:14:52;0.50;;;0.50;;
65289;SDS011;51893;59.754;10.110;2024-02-23T04:17:20;0.40;;;0.40;;
65289;SDS011;51893;59.754;10.110;2024-02-23T04:19:48;0.70;;;0.70;;
65289;SDS011;51893;59.754;10.110;2024-02-23T04:22:17;0.50;;;0.50;;
65289;SDS011;51893;59.754;10.110;2024-02-23T04:24:45;0.60;;;0.60;;
65289;SDS011;51893;59.754;10.110;2024-02-23T04:27:14;0.50;;;0.50;;
65289;SDS011;51893;59.754;10.110;2024-02-23T04:29:42;0.40;;;0.40;;
65289;SDS011;51893;59.754;10.110;2024-02-23T04:32:10;0.80;;;0.40;;
65289;SDS011;51893;59.754;10.110;2024-02-23T04:34:38;0.40;;;0.40;;
65289;SDS011;51893;59.754;10.110;2024-02-23T04:37:08;0.40;;;0.40;;
65289;SDS011;51893;59.754;10.110;2024-02-23T04:39:35;0.50;;;0.50;;
65289;SDS011;51893;59.754;10.110;2024-02-23T04:42:05;0.30;;;0.30;;
65289;SDS011;51893;59.754;10.110;2024-02-23T04:44:36;0.50;;;0.50;;
65289;SDS011;51893;59.754;10.110;2024-02-23T04:47:04;0.50;;;0.50;;
65289;SDS011;51893;59.754;10.110;2024-02-23T04:49:32;0.40;;;0.40;;
65289;SDS011;51893;59.754;10.110;2024-02-23T04:52:01;0.40;;;0.40;;
65289;SDS011;51893;59.754;10.110;2024-02-23T04:54:29;0.40;;;0.40;;
65289;SDS011;51893;59.754;10.110;2024-02-23T04:56:57;0.40;;;0.40;;
65289;SDS011;51893;59.754;10.110;2024-02-23T04:59:25;0.40;;;0.40;;
65289;SDS011;51893;59.754;10.110;2024-02-23T05:01:53;0.40;;;0.40;;
65289;SDS011;51893;59.754;10.110;2024-02-23T05:04:22;0.40;;;0.40;;
65289;SDS011;51893;59.754;10.110;2024-02-23T05:06:51;0.40;;;0.40;;
65289;SDS011;51893;59.754;10.110;2024-02-23T05:09:19;0.50;;;0.50;;
65289;SDS011;51893;59.754;10.110;2024-02-23T05:11:48;0.40;;;0.40;;
65289;SDS011;51893;59.754;10.110;2024-02-23T05:14:17;0.30;;;0.30;;
65289;SDS011;51893;59.754;10.110;2024-02-23T05:16:45;0.30;;;0.30;;
65289;SDS011;51893;59.754;10.110;2024-02-23T05:19:13;0.30;;;0.30;;
65289;SDS011;51893;59.754;10.110;2024-02-23T05:21:41;0.40;;;0.40;;
65289;SDS011;51893;59.754;10.110;2024-02-23T05:24:11;0.40;;;0.40;;
65289;SDS011;51893;59.754;10.110;2024-02-23T05:26:39;0.30;;;0.30;;
65289;SDS011;51893;59.754;10.110;2024-02-23T05:29:08;0.40;;;0.40;;
65289;SDS011;51893;59.754;10.110;2024-02-23T05:31:45;0.40;;;0.40;;
65289;SDS011;51893;59.754;10.110;2024-02-23T05:34:15;0.40;;;0.40;;
65289;SDS011;51893;59.754;10.110;2024-02-23T05:36:43;0.40;;;0.40;;
65289;SDS011;51893;59.754;10.110;2024-02-23T05:39:13;0.40;;;0.40;;
65289;SDS011;51893;59.754;10.110;2024-02-23T05:41:43;0.40;;;0.40;;
65289;SDS011;51893;59.754;10.110;2024-02-23T05:44:12;0.40;;;0.40;;
65289;SDS011;51893;59.754;10.110;2024-02-23T05:46:42;0.30;;;0.30;;
65289;SDS011;51893;59.754;10.110;2024-02-23T05:49:12;0.40;;;0.40;;
65289;SDS011;51893;59.754;10.110;2024-02-23T05:51:40;0.50;;;0.50;;
65289;SDS011;51893;59.754;10.110;2024-02-23T05:54:08;0.40;;;0.40;;
65289;SDS011;51893;59.754;10.110;2024-02-23T05:56:37;0.40;;;0.40;;
65289;SDS011;51893;59.754;10.110;2024-02-23T05:59:05;0.40;;;0.40;;
65289;SDS011;51893;59.754;10.110;2024-02-23T06:01:35;1.70;;;0.70;;
65289;SDS011;51893;59.754;10.110;2024-02-23T06:04:03;0.60;;;0.60;;
65289;SDS011;51893;59.754;10.110;2024-02-23T06:06:33;0.40;;;0.40;;
65289;SDS011;51893;59.754;10.110;2024-02-23T06:09:01;0.40;;;0.40;;
65289;SDS011;51893;59.754;10.110;2024-02-23T06:11:31;0.50;;;0.50;;
65289;SDS011;51893;59.754;10.110;2024-02-23T06:13:59;0.40;;;0.40;;
65289;SDS011;51893;59.754;10.110;2024-02-23T06:16:27;0.60;;;0.60;;
65289;SDS011;51893;59.754;10.110;2024-02-23T06:18:55;0.50;;;0.50;;
65289;SDS011;51893;59.754;10.110;2024-02-23T06:21:25;0.40;;;0.40;;
65289;SDS011;51893;59.754;10.110;2024-02-23T06:23:53;0.50;;;0.50;;
65289;SDS011;51893;59.754;10.110;2024-02-23T06:26:21;0.70;;;0.60;;
65289;SDS011;51893;59.754;10.110;2024-02-23T06:28:49;0.40;;;0.40;;
65289;SDS011;51893;59.754;10.110;2024-02-23T06:31:18;0.40;;;0.40;;
65289;SDS011;51893;59.754;10.110;2024-02-23T06:33:46;0.40;;;0.40;;
65289;SDS011;51893;59.754;10.110;2024-02-23T06:36:18;0.50;;;0.50;;
65289;SDS011;51893;59.754;10.110;2024-02-23T06:38:46;0.50;;;0.50;;
65289;SDS011;51893;59.754;10.110;2024-02-23T06:41:16;1.30;;;0.50;;
65289;SDS011;51893;59.754;10.110;2024-02-23T06:43:44;0.50;;;0.50;;
65289;SDS011;51893;59.754;10.110;2024-02-23T06:46:14;2.10;;;0.50;;
65289;SDS011;51893;59.754;10.110;2024-02-23T06:48:45;0.40;;;0.40;;
65289;SDS011;51893;59.754;10.110;2024-02-23T06:51:14;0.40;;;0.40;;
65289;SDS011;51893;59.754;10.110;2024-02-23T06:53:43;0.50;;;0.50;;
65289;SDS011;51893;59.754;10.110;2024-02-23T06:56:13;1.00;;;0.50;;
65289;SDS011;51893;59.754;10.110;2024-02-23T06:58:42;0.50;;;0.50;;
65289;SDS011;51893;59.754;10.110;2024-02-23T07:01:10;0.50;;;0.50;;
65289;SDS011;51893;59.754;10.110;2024-02-23T07:03:41;0.40;;;0.40;;
65289;SDS011;51893;59.754;10.110;2024-02-23T07:06:11;0.40;;;0.40;;
65289;SDS011;51893;59.754;10.110;2024-02-23T07:08:39;0.40;;;0.40;;
65289;SDS011;51893;59.754;10.110;2024-02-23T07:11:08;0.40;;;0.40;;
65289;SDS011;51893;59.754;10.110;2024-02-23T07:13:36;0.50;;;0.50;;
65289;SDS011;51893;59.754;10.110;2024-02-23T07:16:05;0.40;;;0.40;;
65289;SDS011;51893;59.754;10.110;2024-02-23T07:18:33;0.50;;;0.50;;
65289;SDS011;51893;59.754;10.110;2024-02-23T07:21:03;0.50;;;0.50;;
65289;SDS011;51893;59.754;10.110;2024-02-23T07:23:31;0.40;;;0.40;;
65289;SDS011;51893;59.754;10.110;2024-02-23T07:25:59;0.30;;;0.30;;
65289;SDS011;51893;59.754;10.110;2024-02-23T07:28:27;0.40;;;0.40;;
65289;SDS011;51893;59.754;10.110;2024-02-23T07:30:56;0.40;;;0.40;;
65289;SDS011;51893;59.754;10.110;2024-02-23T07:33:24;0.50;;;0.50;;
65289;SDS011;51893;59.754;10.110;2024-02-23T07:35:53;0.40;;;0.40;;
65289;SDS011;51893;59.754;10.110;2024-02-23T07:38:21;0.80;;;0.60;;
65289;SDS011;51893;59.754;10.110;2024-02-23T07:40:49;0.50;;;0.50;;
65289;SDS011;51893;59.754;10.110;2024-02-23T07:43:17;0.80;;;0.70;;
65289;SDS011;51893;59.754;10.110;2024-02-23T07:45:47;0.60;;;0.60;;
65289;SDS011;51893;59.754;10.110;2024-02-23T07:48:15;0.40;;;0.40;;
65289;SDS011;51893;59.754;10.110;2024-02-23T07:50:43;0.40;;;0.40;;
65289;SDS011;51893;59.754;10.110;2024-02-23T07:53:12;0.80;;;0.80;;
65289;SDS011;51893;59.754;10.110;2024-02-23T07:55:40;0.60;;;0.60;;
65289;SDS011;51893;59.754;10.110;2024-02-23T07:58:09;0.50;;;0.50;;
65289;SDS011;51893;59.754;10.110;2024-02-23T08:00:37;0.50;;;0.50;;
65289;SDS011;51893;59.754;10.110;2024-02-23T08:03:06;0.50;;;0.50;;
65289;SDS011;51893;59.754;10.110;2024-02-23T08:05:36;0.70;;;0.60;;
65289;SDS011;51893;59.754;10.110;2024-02-23T08:08:06;1.40;;;0.70;;
65289;SDS011;51893;59.754;10.110;2024-02-23T08:10:35;1.20;;;0.80;;
65289;SDS011;51893;59.754;10.110;2024-02-23T08:13:05;1.00;;;0.80;;
65289;SDS011;51893;59.754;10.110;2024-02-23T08:15:33;1.10;;;0.80;;
65289;SDS011;51893;59.754;10.110;2024-02-23T08:18:04;0.60;;;0.60;;
65289;SDS011;51893;59.754;10.110;2024-02-23T08:20:32;0.70;;;0.70;;
65289;SDS011;51893;59.754;10.110;2024-02-23T08:23:02;0.70;;;0.70;;
65289;SDS011;51893;59.754;10.110;2024-02-23T08:25:30;0.90;;;0.80;;
65289;SDS011;51893;59.754;10.110;2024-02-23T08:27:58;0.70;;;0.70;;
65289;SDS011;51893;59.754;10.110;2024-02-23T08:30:27;3.10;;;2.30;;
65289;SDS011;51893;59.754;10.110;2024-02-23T08:32:55;0.90;;;0.90;;
65289;SDS011;51893;59.754;10.110;2024-02-23T08:35:24;1.60;;;0.80;;
65289;SDS011;51893;59.754;10.110;2024-02-23T08:37:52;2.10;;;0.90;;
65289;SDS011;51893;59.754;10.110;2024-02-23T08:40:20;0.90;;;0.80;;
65289;SDS011;51893;59.754;10.110;2024-02-23T08:42:48;0.80;;;0.80;;
65289;SDS011;51893;59.754;10.110;2024-02-23T08:45:18;1.60;;;1.00;;
65289;SDS011;51893;59.754;10.110;2024-02-23T08:47:46;1.50;;;1.40;;
65289;SDS011;51893;59.754;10.110;2024-02-23T08:50:14;1.10;;;1.00;;
65289;SDS011;51893;59.754;10.110;2024-02-23T08:52:44;3.90;;;0.80;;
65289;SDS011;51893;59.754;10.110;2024-02-23T08:55:12;1.00;;;0.80;;
65289;SDS011;51893;59.754;10.110;2024-02-23T08:57:41;1.60;;;0.50;;
65289;SDS011;51893;59.754;10.110;2024-02-23T09:00:09;0.60;;;0.60;;
65289;SDS011;51893;59.754;10.110;2024-02-23T09:02:41;1.50;;;0.80;;
65289;SDS011;51893;59.754;10.110;2024-02-23T09:05:10;1.30;;;1.20;;
65289;SDS011;51893;59.754;10.110;2024-02-23T09:07:38;2.10;;;1.60;;
65289;SDS011;51893;59.754;10.110;2024-02-23T09:10:07;1.50;;;0.70;;
65289;SDS011;51893;59.754;10.110;2024-02-23T09:12:36;3.30;;;0.80;;
65289;SDS011;51893;59.754;10.110;2024-02-23T09:15:05;0.60;;;0.60;;
65289;SDS011;51893;59.754;10.110;2024-02-23T09:17:33;0.90;;;0.70;;
65289;SDS011;51893;59.754;10.110;2024-02-23T09:20:03;0.60;;;0.60;;
65289;SDS011;51893;59.754;10.110;2024-02-23T09:22:31;1.50;;;0.80;;
65289;SDS011;51893;59.754;10.110;2024-02-23T09:24:59;1.00;;;0.70;;
65289;SDS011;51893;59.754;10.110;2024-02-23T09:27:27;0.50;;;0.50;;
65289;SDS011;51893;59.754;10.110;2024-02-23T09:29:55;1.40;;;0.70;;
65289;SDS011;51893;59.754;10.110;2024-02-23T09:32:23;0.60;;;0.60;;
65289;SDS011;51893;59.754;10.110;2024-02-23T09:34:51;0.70;;;0.70;;
65289;SDS011;51893;59.754;10.110;2024-02-23T09:37:19;0.50;;;0.50;;
65289;SDS011;51893;59.754;10.110;2024-02-23T09:39:49;0.70;;;0.70;;
65289;SDS011;51893;59.754;10.110;2024-02-23T09:42:18;0.90;;;0.80;;
65289;SDS011;51893;59.754;10.110;2024-02-23T09:44:59;0.70;;;0.70;;
65289;SDS011;51893;59.754;10.110;2024-02-23T09:47:28;0.50;;;0.50;;
65289;SDS011;51893;59.754;10.110;2024-02-23T09:49:58;0.50;;;0.50;;
65289;SDS011;51893;59.754;10.110;2024-02-23T09:52:28;2.00;;;0.50;;
65289;SDS011;51893;59.754;10.110;2024-02-23T09:54:59;1.20;;;0.60;;
65289;SDS011;51893;59.754;10.110;2024-02-23T09:57:28;0.60;;;0.60;;
65289;SDS011;51893;59.754;10.110;2024-02-23T09:59:56;0.80;;;0.60;;
65289;SDS011;51893;59.754;10.110;2024-02-23T10:02:24;0.40;;;0.40;;
65289;SDS011;51893;59.754;10.110;2024-02-23T10:04:54;0.50;;;0.50;;
65289;SDS011;51893;59.754;10.110;2024-02-23T10:07:25;1.30;;;0.70;;
65289;SDS011;51893;59.754;10.110;2024-02-23T10:09:53;1.00;;;0.60;;
65289;SDS011;51893;59.754;10.110;2024-02-23T10:12:23;2.70;;;2.50;;
65289;SDS011;51893;59.754;10.110;2024-02-23T10:14:51;0.80;;;0.80;;
65289;SDS011;51893;59.754;10.110;2024-02-23T10:17:20;0.70;;;0.70;;
65289;SDS011;51893;59.754;10.110;2024-02-23T10:19:49;1.50;;;1.10;;
65289;SDS011;51893;59.754;10.110;2024-02-23T10:22:17;1.10;;;0.70;;
65289;SDS011;51893;59.754;10.110;2024-02-23T10:24:45;1.10;;;0.80;;
65289;SDS011;51893;59.754;10.110;2024-02-23T10:27:14;0.80;;;0.70;;
65289;SDS011;51893;59.754;10.110;2024-02-23T10:29:42;0.90;;;0.60;;
65289;SDS011;51893;59.754;10.110;2024-02-23T10:32:14;0.70;;;0.70;;
65289;SDS011;51893;59.754;10.110;2024-02-23T10:34:45;0.60;;;0.60;;
65289;SDS011;51893;59.754;10.110;2024-02-23T10:37:19;0.80;;;0.60;;
65289;SDS011;51893;59.754;10.110;2024-02-23T10:39:47;1.60;;;0.60;;
65289;SDS011;51893;59.754;10.110;2024-02-23T10:42:21;0.70;;;0.60;;
65289;SDS011;51893;59.754;10.110;2024-02-23T10:47:23;0.60;;;0.50;;
65289;SDS011;51893;59.754;10.110;2024-02-23T10:49:52;0.80;;;0.70;;
65289;SDS011;51893;59.754;10.110;2024-02-23T10:52:23;0.80;;;0.80;;
65289;SDS011;51893;59.754;10.110;2024-02-23T10:54:55;0.90;;;0.80;;
65289;SDS011;51893;59.754;10.110;2024-02-23T10:57:25;0.90;;;0.90;;
65289;SDS011;51893;59.754;10.110;2024-02-23T10:59:55;1.50;;;1.20;;
65289;SDS011;51893;59.754;10.110;2024-02-23T11:02:23;1.80;;;1.50;;
65289;SDS011;51893;59.754;10.110;2024-02-23T11:04:55;2.00;;;1.80;;
65289;SDS011;51893;59.754;10.110;2024-02-23T11:07:25;1.80;;;1.20;;
65289;SDS011;51893;59.754;10.110;2024-02-23T11:09:59;3.00;;;2.10;;
65289;SDS011;51893;59.754;10.110;2024-02-23T11:12:29;1.70;;;1.50;;
65289;SDS011;51893;59.754;10.110;2024-02-23T11:14:58;1.40;;;1.30;;
65289;SDS011;51893;59.754;10.110;2024-02-23T11:17:29;1.90;;;1.50;;
65289;SDS011;51893;59.754;10.110;2024-02-23T11:20:03;1.20;;;1.10;;
65289;SDS011;51893;59.754;10.110;2024-02-23T11:22:34;2.00;;;1.60;;
65289;SDS011;51893;59.754;10.110;2024-02-23T11:25:07;2.10;;;1.50;;
65289;SDS011;51893;59.754;10.110;2024-02-23T11:27:38;3.00;;;2.10;;
65289;SDS011;51893;59.754;10.110;2024-02-23T11:30:10;2.50;;;1.60;;
65289;SDS011;51893;59.754;10.110;2024-02-23T11:32:44;1.40;;;1.30;;
65289;SDS011;51893;59.754;10.110;2024-02-23T11:35:25;1.40;;;1.30;;
65289;SDS011;51893;59.754;10.110;2024-02-23T11:37:56;1.30;;;1.20;;
65289;SDS011;51893;59.754;10.110;2024-02-23T11:40:29;1.30;;;1.20;;
65289;SDS011;51893;59.754;10.110;2024-02-23T11:42:59;1.00;;;1.00;;
65289;SDS011;51893;59.754;10.110;2024-02-23T11:45:28;2.30;;;1.40;;
65289;SDS011;51893;59.754;10.110;2024-02-23T11:47:59;2.20;;;2.00;;
65289;SDS011;51893;59.754;10.110;2024-02-23T11:50:28;7.20;;;2.60;;
65289;SDS011;51893;59.754;10.110;2024-02-23T11:52:57;6.10;;;3.00;;
65289;SDS011;51893;59.754;10.110;2024-02-23T11:55:26;3.30;;;2.50;;
65289;SDS011;51893;59.754;10.110;2024-02-23T11:57:54;3.90;;;2.30;;
65289;SDS011;51893;59.754;10.110;2024-02-23T12:00:34;4.20;;;2.30;;
65289;SDS011;51893;59.754;10.110;2024-02-23T12:03:06;4.40;;;2.80;;
65289;SDS011;51893;59.754;10.110;2024-02-23T12:05:40;3.40;;;2.60;;
65289;SDS011;51893;59.754;10.110;2024-02-23T12:08:08;3.40;;;2.40;;
65289;SDS011;51893;59.754;10.110;2024-02-23T12:10:36;3.30;;;1.70;;
65289;SDS011;51893;59.754;10.110;2024-02-23T12:13:05;4.30;;;2.50;;
65289;SDS011;51893;59.754;10.110;2024-02-23T12:15:34;2.60;;;2.20;;
65289;SDS011;51893;59.754;10.110;2024-02-23T12:18:03;3.10;;;2.20;;
65289;SDS011;51893;59.754;10.110;2024-02-23T12:20:35;3.50;;;2.40;;
65289;SDS011;51893;59.754;10.110;2024-02-23T12:23:04;2.30;;;2.10;;
65289;SDS011;51893;59.754;10.110;2024-02-23T12:25:33;1.70;;;1.60;;
65289;SDS011;51893;59.754;10.110;2024-02-23T12:28:01;2.60;;;1.60;;
65289;SDS011;51893;59.754;10.110;2024-02-23T12:30:31;1.80;;;1.70;;
65289;SDS011;51893;59.754;10.110;2024-02-23T12:33:05;3.20;;;1.70;;
65289;SDS011;51893;59.754;10.110;2024-02-23T12:35:36;2.50;;;1.70;;
65289;SDS011;51893;59.754;10.110;2024-02-23T12:38:04;7.50;;;2.50;;
65289;SDS011;51893;59.754;10.110;2024-02-23T12:40:32;1.70;;;1.50;;
65289;SDS011;51893;59.754;10.110;2024-02-23T12:43:01;2.00;;;1.70;;
65289;SDS011;51893;59.754;10.110;2024-02-23T12:45:30;5.00;;;1.90;;
65289;SDS011;51893;59.754;10.110;2024-02-23T12:47:58;2.10;;;1.50;;
65289;SDS011;51893;59.754;10.110;2024-02-23T12:50:29;3.00;;;1.60;;
65289;SDS011;51893;59.754;10.110;2024-02-23T12:52:58;2.10;;;1.50;;
65289;SDS011;51893;59.754;10.110;2024-02-23T12:55:28;2.90;;;1.40;;
65289;SDS011;51893;59.754;10.110;2024-02-23T12:57:56;1.10;;;1.00;;
65289;SDS011;51893;59.754;10.110;2024-02-23T13:00:24;1.50;;;0.90;;
65289;SDS011;51893;59.754;10.110;2024-02-23T13:02:52;0.60;;;0.60;;
65289;SDS011;51893;59.754;10.110;2024-02-23T13:05:20;0.30;;;0.30;;
65289;SDS011;51893;59.754;10.110;2024-02-23T13:07:50;0.30;;;0.30;;
65289;SDS011;51893;59.754;10.110;2024-02-23T13:10:18;0.40;;;0.40;;
65289;SDS011;51893;59.754;10.110;2024-02-23T13:12:46;0.70;;;0.40;;
65289;SDS011;51893;59.754;10.110;2024-02-23T13:15:15;0.30;;;0.30;;
65289;SDS011;51893;59.754;10.110;2024-02-23T13:17:48;0.30;;;0.30;;
65289;SDS011;51893;59.754;10.110;2024-02-23T13:20:17;0.30;;;0.30;;
65289;SDS011;51893;59.754;10.110;2024-02-23T13:22:47;0.40;;;0.40;;
65289;SDS011;51893;59.754;10.110;2024-02-23T13:25:15;0.30;;;0.30;;
65289;SDS011;51893;59.754;10.110;2024-02-23T13:27:43;0.30;;;0.30;;
65289;SDS011;51893;59.754;10.110;2024-02-23T13:30:12;0.40;;;0.40;;
65289;SDS011;51893;59.754;10.110;2024-02-23T13:32:40;0.30;;;0.30;;
65289;SDS011;51893;59.754;10.110;2024-02-23T13:35:09;0.70;;;0.50;;
65289;SDS011;51893;59.754;10.110;2024-02-23T13:37:37;0.30;;;0.30;;
65289;SDS011;51893;59.754;10.110;2024-02-23T13:40:05;0.30;;;0.30;;
65289;SDS011;51893;59.754;10.110;2024-02-23T13:42:38;0.40;;;0.40;;
65289;SDS011;51893;59.754;10.110;2024-02-23T13:45:09;0.30;;;0.30;;
65289;SDS011;51893;59.754;10.110;2024-02-23T13:47:40;0.40;;;0.40;;
65289;SDS011;51893;59.754;10.110;2024-02-23T13:50:09;0.40;;;0.30;;
65289;SDS011;51893;59.754;10.110;2024-02-23T13:52:37;0.30;;;0.30;;
65289;SDS011;51893;59.754;10.110;2024-02-23T13:55:06;0.30;;;0.30;;
65289;SDS011;51893;59.754;10.110;2024-02-23T13:57:35;0.30;;;0.30;;
65289;SDS011;51893;59.754;10.110;2024-02-23T14:00:03;0.30;;;0.30;;
65289;SDS011;51893;59.754;10.110;2024-02-23T14:02:35;0.40;;;0.40;;
65289;SDS011;51893;59.754;10.110;2024-02-23T14:05:05;0.40;;;0.40;;
65289;SDS011;51893;59.754;10.110;2024-02-23T14:07:36;0.30;;;0.30;;
65289;SDS011;51893;59.754;10.110;2024-02-23T14:10:05;0.40;;;0.40;;
65289;SDS011;51893;59.754;10.110;2024-02-23T14:12:33;0.50;;;0.40;;
65289;SDS011;51893;59.754;10.110;2024-02-23T14:15:02;0.40;;;0.40;;
65289;SDS011;51893;59.754;10.110;2024-02-23T14:17:31;0.40;;;0.40;;
65289;SDS011;51893;59.754;10.110;2024-02-23T14:20:00;0.30;;;0.30;;
65289;SDS011;51893;59.754;10.110;2024-02-23T14:22:29;0.30;;;0.30;;
65289;SDS011;51893;59.754;10.110;2024-02-23T14:24:57;0.40;;;0.40;;
65289;SDS011;51893;59.754;10.110;2024-02-23T14:27:26;0.30;;;0.30;;
65289;SDS011;51893;59.754;10.110;2024-02-23T14:29:58;0.30;;;0.30;;
65289;SDS011;51893;59.754;10.110;2024-02-23T14:32:27;0.60;;;0.40;;
65289;SDS011;51893;59.754;10.110;2024-02-23T14:34:56;0.40;;;0.30;;
65289;SDS011;51893;59.754;10.110;2024-02-23T14:37:25;0.30;;;0.30;;
65289;SDS011;51893;59.754;10.110;2024-02-23T14:39:55;0.70;;;0.30;;
65289;SDS011;51893;59.754;10.110;2024-02-23T14:42:23;0.30;;;0.30;;
65289;SDS011;51893;59.754;10.110;2024-02-23T14:44:51;0.40;;;0.40;;
65289;SDS011;51893;59.754;10.110;2024-02-23T14:47:19;0.30;;;0.30;;